Time;durP1;ratioP1;P1;durP2;ratioP2;P2;SDS_P1;SDS_P2;PMS_P1;PMS_P2;Temp;Humidity;BMP_temperature;BMP_pressure;BME280_temperature;BME280_humidity;BME280_pressure;Samples;Min_cycle;Max_cycle;Signal;HPM_P1;HPM_P2
2022/06/12 00:00:46;;;;;;;28.43;7.30;;;18.10;24.90;;;;;;4991524;28;20465;-71
2022/06/12 00:03:15;;;;;;;28.33;7.33;;;18.10;25.00;;;;;;4992574;28;20460;-71
2022/06/12 00:05:44;;;;;;;31.03;8.17;;;18.10;25.10;;;;;;4990125;28;20475;-71
2022/06/12 00:08:11;;;;;;;31.43;7.50;;;18.10;25.30;;;;;;4992109;28;20491;-71
2022/06/12 00:10:41;;;;;;;30.20;8.30;;;18.10;25.30;;;;;;4990831;28;20464;-71
2022/06/12 00:13:09;;;;;;;30.17;9.20;;;18.10;25.10;;;;;;4992043;28;20548;-70
2022/06/12 00:15:37;;;;;;;29.00;7.77;;;18.10;25.00;;;;;;4990307;28;20464;-71
2022/06/12 00:18:05;;;;;;;28.57;7.53;;;18.00;25.40;;;;;;4990973;28;20503;-71
2022/06/12 00:20:32;;;;;;;28.23;7.47;;;18.00;26.40;;;;;;4990913;28;20474;-71
2022/06/12 00:23:37;;;;;;;29.67;7.00;;;18.00;25.70;;;;;;4990849;28;20848;-71
2022/06/12 00:26:04;;;;;;;32.23;7.50;;;18.00;26.00;;;;;;4989054;28;20499;-71
2022/06/12 00:28:31;;;;;;;32.07;8.20;;;17.90;25.40;;;;;;4991080;28;20480;-71
2022/06/12 00:30:58;;;;;;;28.40;7.30;;;17.90;25.50;;;;;;4990432;28;21000;-71
2022/06/12 00:33:26;;;;;;;29.53;7.37;;;17.90;25.60;;;;;;4991257;28;20468;-71
2022/06/12 00:35:53;;;;;;;29.20;7.40;;;17.90;25.60;;;;;;4989994;28;20480;-71
2022/06/12 00:38:20;;;;;;;30.63;8.03;;;17.90;25.50;;;;;;4991097;28;20847;-71
2022/06/12 00:40:46;;;;;;;31.77;7.93;;;17.90;25.30;;;;;;4990758;28;20466;-71
2022/06/12 00:43:14;;;;;;;32.13;8.23;;;17.90;25.40;;;;;;4991090;28;20463;-71
2022/06/12 00:45:48;;;;;;;31.33;9.30;;;17.90;25.40;;;;;;4990330;28;20457;-70
2022/06/12 00:48:19;;;;;;;31.10;8.20;;;17.90;25.60;;;;;;4990090;28;20495;-71
2022/06/12 00:50:52;;;;;;;32.90;9.10;;;17.80;25.60;;;;;;4990019;28;20445;-71
2022/06/12 00:53:24;;;;;;;30.23;8.27;;;17.80;26.20;;;;;;4990704;28;20444;-71
2022/06/12 00:55:59;;;;;;;32.53;8.93;;;17.80;25.20;;;;;;4990626;28;20472;-71
2022/06/12 00:58:29;;;;;;;31.90;9.53;;;17.80;25.30;;;;;;4989844;28;21023;-71
2022/06/12 01:00:56;;;;;;;30.40;8.40;;;17.80;25.30;;;;;;4990587;28;21040;-71
2022/06/12 01:03:25;;;;;;;32.30;9.17;;;17.80;25.40;;;;;;4990160;28;20736;-71
2022/06/12 01:08:39;;;;;;;30.23;8.47;;;17.60;25.80;;;;;;4988764;28;20475;-71
2022/06/12 01:11:12;;;;;;;30.67;8.60;;;17.60;25.60;;;;;;4990974;28;20461;-71
2022/06/12 01:13:44;;;;;;;30.77;8.00;;;17.60;26.00;;;;;;4991004;28;20471;-70
2022/06/12 01:16:16;;;;;;;28.50;7.00;;;17.60;26.00;;;;;;4990066;28;21037;-71
2022/06/12 01:18:48;;;;;;;32.20;8.07;;;17.50;26.30;;;;;;4989807;28;20469;-70
2022/06/12 01:21:47;;;;;;;30.63;7.97;;;17.40;26.30;;;;;;4988936;28;20472;-70
2022/06/12 01:24:39;;;;;;;30.67;8.27;;;17.40;27.20;;;;;;4949192;28;20463;-71
2022/06/12 01:27:30;;;;;;;31.00;8.70;;;17.40;27.10;;;;;;4979225;28;21024;-71
2022/06/12 01:30:06;;;;;;;31.67;8.07;;;17.20;27.30;;;;;;4986881;28;20468;-71
2022/06/12 01:32:38;;;;;;;34.70;8.50;;;17.20;27.80;;;;;;4990110;28;20465;-70
2022/06/12 01:35:13;;;;;;;31.53;8.03;;;17.10;28.20;;;;;;4988814;28;20712;-70
2022/06/12 01:37:49;;;;;;;31.97;8.70;;;16.90;28.80;;;;;;4988492;28;20488;-71
2022/06/12 01:40:28;;;;;;;29.73;7.83;;;16.80;29.20;;;;;;4990592;28;20563;-71
2022/06/12 01:43:05;;;;;;;31.00;8.47;;;16.60;29.60;;;;;;4991280;28;20445;-70
2022/06/12 01:45:43;;;;;;;28.60;8.57;;;16.50;30.10;;;;;;4985591;28;20524;-70
2022/06/12 01:48:25;;;;;;;29.97;8.30;;;16.40;30.50;;;;;;4990265;28;20496;-71
2022/06/12 01:50:58;;;;;;;29.90;9.47;;;16.40;30.80;;;;;;4989780;28;20497;-70
2022/06/12 01:53:31;;;;;;;30.97;8.80;;;16.40;30.70;;;;;;4989946;28;20981;-70
2022/06/12 01:56:18;;;;;;;33.83;9.60;;;16.30;31.20;;;;;;4985741;28;20949;-70
2022/06/12 01:58:55;;;;;;;30.73;9.87;;;16.30;31.80;;;;;;4985948;28;20457;-70
2022/06/12 02:01:29;;;;;;;31.27;9.77;;;16.20;31.60;;;;;;4988692;28;21123;-71
2022/06/12 02:04:07;;;;;;;28.70;9.17;;;16.20;31.40;;;;;;4989431;28;20819;-70
2022/06/12 02:06:39;;;;;;;29.70;10.00;;;16.30;31.70;;;;;;4986827;28;20487;-70
2022/06/12 02:09:12;;;;;;;29.57;9.00;;;16.30;31.60;;;;;;4986427;28;21037;-70
2022/06/12 02:14:35;;;;;;;30.63;8.23;;;16.30;32.00;;;;;;4989398;28;20420;-70
2022/06/12 02:17:06;;;;;;;30.23;9.43;;;16.30;32.30;;;;;;4986925;28;20491;-71
2022/06/12 02:19:39;;;;;;;31.67;10.20;;;16.30;32.20;;;;;;4969469;28;20856;-71
2022/06/12 02:22:10;;;;;;;31.20;9.40;;;16.30;32.30;;;;;;4970007;28;20449;-70
2022/06/12 02:24:41;;;;;;;29.20;8.43;;;16.30;32.60;;;;;;4970484;28;20442;-70
2022/06/12 02:27:13;;;;;;;30.97;10.00;;;16.20;32.30;;;;;;4969030;28;20580;-70
2022/06/12 02:29:43;;;;;;;31.10;10.40;;;16.20;32.40;;;;;;4987541;28;20471;-70
2022/06/12 02:32:16;;;;;;;30.27;9.30;;;16.20;32.80;;;;;;4988848;28;20469;-71
2022/06/12 02:34:49;;;;;;;29.90;9.03;;;16.10;33.00;;;;;;4989889;28;20833;-70
2022/06/12 02:37:19;;;;;;;30.93;10.53;;;16.10;33.30;;;;;;4987872;28;20896;-70
2022/06/12 02:43:11;;;;;;;32.60;9.70;;;16.00;33.90;;;;;;4986366;28;20514;-70
2022/06/12 02:45:42;;;;;;;33.07;10.63;;;16.00;33.70;;;;;;4987659;28;21020;-70
2022/06/12 02:48:10;;;;;;;31.60;9.80;;;15.90;33.50;;;;;;4987668;28;20488;-71
2022/06/12 02:50:42;;;;;;;30.73;9.00;;;15.90;33.80;;;;;;4988295;28;20547;-70
2022/06/12 02:53:20;;;;;;;33.33;9.80;;;15.80;33.70;;;;;;4988135;28;20461;-70
2022/06/12 02:55:54;;;;;;;29.40;8.67;;;15.80;34.00;;;;;;4986693;28;20461;-70
2022/06/12 02:58:29;;;;;;;31.57;9.83;;;15.80;34.20;;;;;;4987650;28;20460;-70
2022/06/12 03:01:01;;;;;;;33.13;9.07;;;15.80;34.20;;;;;;4988443;28;20468;-71
2022/06/12 03:03:36;;;;;;;31.57;9.00;;;15.80;34.20;;;;;;4989011;28;20456;-70
2022/06/12 03:06:04;;;;;;;33.33;10.40;;;15.80;34.30;;;;;;4987892;28;20464;-71
2022/06/12 03:08:35;;;;;;;29.93;8.83;;;15.80;34.00;;;;;;4987592;28;20484;-70
2022/06/12 03:11:06;;;;;;;32.07;10.13;;;15.80;34.40;;;;;;4988012;28;20487;-70
2022/06/12 03:13:33;;;;;;;30.40;8.77;;;15.80;33.90;;;;;;4988512;28;20961;-70
2022/06/12 03:16:09;;;;;;;32.20;9.90;;;15.80;34.00;;;;;;4987967;28;20885;-70
2022/06/12 03:18:40;;;;;;;32.03;9.50;;;15.80;34.40;;;;;;4969997;28;20458;-70
2022/06/12 03:21:14;;;;;;;31.53;9.43;;;15.80;34.60;;;;;;4985860;28;20468;-70
2022/06/12 03:24:18;;;;;;;34.00;9.70;;;15.80;34.90;;;;;;4988418;28;20555;-70
2022/06/12 03:26:54;;;;;;;32.03;10.37;;;15.70;35.20;;;;;;4984608;28;20560;-70
2022/06/12 03:29:33;;;;;;;31.30;9.27;;;15.70;35.10;;;;;;4988910;28;20488;-70
2022/06/12 03:32:05;;;;;;;32.10;10.43;;;15.70;35.00;;;;;;4968293;28;21330;-70
2022/06/12 03:34:39;;;;;;;31.50;9.80;;;15.70;35.50;;;;;;4969723;28;20465;-70
2022/06/12 03:37:09;;;;;;;32.50;10.10;;;15.70;35.10;;;;;;4984282;28;20483;-70
2022/06/12 03:39:42;;;;;;;31.40;9.53;;;15.70;35.40;;;;;;4988851;28;20503;-70
2022/06/12 03:42:18;;;;;;;30.80;9.30;;;15.60;35.10;;;;;;4987806;28;20939;-70
2022/06/12 03:44:51;;;;;;;30.23;8.97;;;15.60;35.20;;;;;;4987505;28;20452;-70
2022/06/12 03:47:25;;;;;;;32.57;10.07;;;15.70;35.00;;;;;;4988002;28;20476;-70
2022/06/12 03:50:00;;;;;;;32.43;9.90;;;15.70;34.80;;;;;;4988703;28;20440;-70
2022/06/12 03:52:32;;;;;;;33.53;9.20;;;15.70;35.20;;;;;;4987754;28;20815;-70
2022/06/12 03:55:04;;;;;;;31.27;9.00;;;15.70;35.10;;;;;;4987713;28;20461;-70
2022/06/12 03:57:53;;;;;;;32.67;9.93;;;15.80;34.70;;;;;;4988553;28;20483;-70
2022/06/12 04:00:25;;;;;;;35.17;9.53;;;15.80;34.70;;;;;;4987661;28;20535;-71
2022/06/12 04:02:57;;;;;;;31.00;9.17;;;15.90;34.40;;;;;;4985858;28;20465;-70
2022/06/12 04:05:29;;;;;;;35.83;9.47;;;15.90;34.10;;;;;;4986725;28;20457;-70
2022/06/12 04:11:21;;;;;;;31.23;8.60;;;15.90;34.40;;;;;;4979948;28;20448;-70
2022/06/12 04:13:49;;;;;;;32.63;9.20;;;15.90;34.00;;;;;;4986672;28;20471;-70
2022/06/12 04:16:25;;;;;;;31.40;9.30;;;15.90;34.10;;;;;;4988352;28;20480;-70
2022/06/12 04:18:53;;;;;;;33.03;10.20;;;16.00;34.00;;;;;;4987027;28;20464;-70
2022/06/12 04:21:31;;;;;;;35.60;10.60;;;16.00;34.00;;;;;;4991136;28;20456;-71
2022/06/12 04:24:06;;;;;;;32.53;9.50;;;16.00;33.90;;;;;;4972577;28;20496;-70
2022/06/12 04:26:36;;;;;;;31.33;9.50;;;16.10;33.80;;;;;;4971598;28;20476;-70
2022/06/12 04:29:06;;;;;;;30.73;9.07;;;16.20;33.70;;;;;;4976282;28;20484;-70
2022/06/12 04:34:55;;;;;;;32.63;7.70;;;17.60;32.50;;;;;;4991428;28;20513;-70
2022/06/12 04:37:27;;;;;;;32.07;8.60;;;18.90;28.60;;;;;;4991197;28;20546;-70
2022/06/12 04:39:54;;;;;;;32.00;7.93;;;19.80;25.10;;;;;;4991700;28;20782;-70
2022/06/12 04:42:24;;;;;;;32.63;7.10;;;20.60;23.00;;;;;;4989174;28;20479;-70
2022/06/12 04:44:51;;;;;;;31.77;7.27;;;21.30;20.40;;;;;;4990297;28;20463;-71
2022/06/12 04:47:20;;;;;;;32.30;7.83;;;21.90;19.20;;;;;;4991041;28;20571;-71
2022/06/12 04:49:48;;;;;;;31.63;7.50;;;22.50;17.90;;;;;;4990709;28;20488;-70
2022/06/12 04:52:16;;;;;;;31.93;7.30;;;23.10;16.50;;;;;;4990326;28;20579;-71
2022/06/12 04:54:46;;;;;;;31.10;6.87;;;23.50;15.30;;;;;;4990997;28;20468;-71
2022/06/12 04:57:14;;;;;;;31.03;6.50;;;23.60;14.70;;;;;;4990956;28;20844;-70
2022/06/12 04:59:41;;;;;;;31.50;6.40;;;24.00;14.50;;;;;;4986846;28;20468;-71
2022/06/12 05:02:09;;;;;;;30.43;6.60;;;24.50;13.60;;;;;;4988889;28;20477;-70
2022/06/12 05:04:36;;;;;;;30.00;6.10;;;25.30;12.80;;;;;;4990917;28;20461;-70
2022/06/12 05:07:04;;;;;;;30.40;6.30;;;26.00;11.40;;;;;;4991129;28;20480;-70
2022/06/12 05:09:34;;;;;;;31.67;6.17;;;26.60;10.20;;;;;;4989503;28;20488;-71
2022/06/12 05:12:03;;;;;;;32.10;6.00;;;27.20;9.40;;;;;;4990058;28;20468;-71
2022/06/12 05:14:30;;;;;;;30.70;5.90;;;27.80;8.50;;;;;;4990681;28;20472;-71
2022/06/12 05:16:59;;;;;;;28.53;5.83;;;28.40;7.90;;;;;;4990528;28;20852;-71
2022/06/12 05:19:29;;;;;;;33.77;6.10;;;29.10;7.10;;;;;;4988687;28;20456;-71
2022/06/12 05:21:56;;;;;;;29.50;6.00;;;29.80;5.90;;;;;;4988748;28;20472;-71
2022/06/12 05:24:23;;;;;;;28.40;5.23;;;30.40;4.40;;;;;;4991043;28;20468;-71
2022/06/12 05:26:52;;;;;;;28.60;5.50;;;31.00;3.90;;;;;;4990039;28;20476;-71
2022/06/12 05:29:23;;;;;;;28.20;5.20;;;31.60;2.70;;;;;;4989351;28;20480;-71
2022/06/12 05:31:51;;;;;;;27.87;5.70;;;32.10;1.80;;;;;;4986633;28;20457;-71
2022/06/12 05:34:18;;;;;;;27.50;5.03;;;32.50;1.00;;;;;;4990381;28;20996;-71
2022/06/12 05:36:46;;;;;;;27.53;4.90;;;33.10;1.00;;;;;;4990168;28;20499;-71
2022/06/12 05:39:13;;;;;;;27.43;5.13;;;33.60;1.00;;;;;;4988099;28;20476;-71
2022/06/12 05:41:40;;;;;;;26.87;4.77;;;34.00;1.00;;;;;;4987667;28;20464;-71
2022/06/12 05:44:07;;;;;;;27.57;5.40;;;34.50;1.00;;;;;;4988769;28;20460;-71
2022/06/12 05:46:35;;;;;;;25.60;4.50;;;34.90;1.00;;;;;;4990011;28;20476;-71
2022/06/12 05:49:02;;;;;;;27.53;4.77;;;35.40;1.00;;;;;;4989162;28;20480;-71
2022/06/12 05:51:30;;;;;;;27.63;5.00;;;35.90;1.00;;;;;;4989443;28;20841;-71
2022/06/12 05:53:57;;;;;;;26.90;4.40;;;36.50;1.00;;;;;;4988596;28;20475;-71
2022/06/12 05:56:26;;;;;;;25.73;4.30;;;36.90;1.00;;;;;;4989393;28;20480;-71
2022/06/12 05:58:53;;;;;;;28.60;4.57;;;37.40;1.00;;;;;;4989753;28;20464;-71
2022/06/12 06:01:22;;;;;;;26.07;4.50;;;37.80;1.00;;;;;;4989330;28;20555;-71
2022/06/12 06:03:51;;;;;;;26.17;5.03;;;38.30;1.00;;;;;;4988621;28;20809;-71
2022/06/12 06:06:21;;;;;;;24.57;4.60;;;38.80;1.00;;;;;;4987563;28;20496;-71
2022/06/12 06:08:49;;;;;;;26.00;5.00;;;39.30;1.00;;;;;;4989399;28;20508;-71
2022/06/12 06:11:15;;;;;;;24.47;4.47;;;40.00;1.00;;;;;;4990124;28;20464;-71
2022/06/12 06:13:42;;;;;;;27.13;4.90;;;40.60;1.00;;;;;;4987976;28;20465;-71
2022/06/12 06:16:09;;;;;;;23.87;4.60;;;41.30;1.00;;;;;;4989627;28;20467;-71
2022/06/12 06:18:39;;;;;;;23.97;4.27;;;41.70;1.00;;;;;;4989202;28;20483;-71
2022/06/12 06:21:08;;;;;;;24.30;4.60;;;42.20;1.00;;;;;;4988648;28;20471;-71
2022/06/12 06:23:35;;;;;;;25.23;4.40;;;42.90;1.00;;;;;;4988206;28;20522;-71
2022/06/12 06:26:02;;;;;;;25.80;4.37;;;43.40;1.00;;;;;;4989289;28;20461;-71
2022/06/12 06:28:29;;;;;;;24.97;4.50;;;43.70;1.00;;;;;;4989365;28;20484;-71
2022/06/12 06:30:56;;;;;;;23.57;3.90;;;44.00;1.00;;;;;;4989162;28;21033;-71
2022/06/12 06:33:23;;;;;;;23.60;4.67;;;44.40;1.00;;;;;;4988811;28;20484;-71
2022/06/12 06:35:50;;;;;;;23.53;4.40;;;44.90;1.00;;;;;;4984269;28;20464;-71
2022/06/12 06:38:18;;;;;;;24.30;4.53;;;45.20;1.00;;;;;;4982269;28;20482;-70
2022/06/12 06:40:45;;;;;;;23.07;4.67;;;45.50;1.00;;;;;;4985054;28;20468;-70
2022/06/12 06:43:12;;;;;;;22.20;4.30;;;46.10;1.00;;;;;;4979720;28;21103;-70
2022/06/12 06:48:26;;;;;;;22.00;4.07;;;46.90;1.00;;;;;;4981029;28;20613;-71
2022/06/12 06:50:53;;;;;;;22.70;4.23;;;47.20;1.00;;;;;;4976270;28;20469;-70
2022/06/12 06:53:21;;;;;;;22.17;3.80;;;47.60;1.00;;;;;;4977327;28;20464;-71
2022/06/12 06:55:49;;;;;;;21.97;4.80;;;48.00;1.00;;;;;;4981978;28;20471;-71
2022/06/12 06:58:19;;;;;;;22.30;3.60;;;48.30;1.00;;;;;;4982940;28;20493;-70
2022/06/12 07:00:48;;;;;;;21.50;3.47;;;48.80;1.00;;;;;;4984868;28;20472;-71
2022/06/12 07:03:15;;;;;;;20.83;3.30;;;49.20;1.00;;;;;;4980072;28;20520;-70
2022/06/12 07:05:44;;;;;;;20.83;3.20;;;49.50;1.00;;;;;;4980512;28;21012;-71
2022/06/12 07:08:10;;;;;;;20.97;3.00;;;50.00;1.00;;;;;;4983384;28;21014;-70
2022/06/12 07:10:40;;;;;;;20.83;3.23;;;50.20;1.00;;;;;;4983437;28;20481;-71
2022/06/12 07:13:07;;;;;;;20.63;3.10;;;50.60;1.00;;;;;;4982605;28;20743;-70
2022/06/12 07:15:36;;;;;;;20.50;3.37;;;50.90;1.00;;;;;;4980438;28;20626;-71
2022/06/12 07:18:04;;;;;;;20.27;3.40;;;51.10;1.00;;;;;;4983262;28;20575;-70
2022/06/12 07:20:35;;;;;;;20.30;2.73;;;51.30;1.00;;;;;;4984539;28;20468;-71
2022/06/12 07:23:03;;;;;;;20.33;3.20;;;51.40;1.00;;;;;;4975331;28;20480;-71
2022/06/12 07:25:30;;;;;;;20.67;3.00;;;51.60;1.00;;;;;;4981913;28;20495;-70
2022/06/12 07:27:58;;;;;;;20.00;3.10;;;52.10;1.00;;;;;;4980107;28;20489;-71
2022/06/12 07:30:26;;;;;;;20.63;2.17;;;52.50;1.00;;;;;;4976502;28;20480;-71
2022/06/12 07:32:52;;;;;;;19.80;2.90;;;52.80;1.00;;;;;;4977547;28;20491;-71
2022/06/12 07:35:20;;;;;;;21.13;3.00;;;52.90;1.00;;;;;;4978230;28;20478;-71
2022/06/12 07:37:48;;;;;;;19.07;2.43;;;53.20;1.00;;;;;;4982753;28;20472;-71
2022/06/12 07:40:18;;;;;;;23.60;3.47;;;53.60;1.00;;;;;;4979148;28;20474;-70
2022/06/12 07:42:45;;;;;;;20.00;2.77;;;54.00;1.00;;;;;;4981329;28;20836;-70
2022/06/12 07:45:13;;;;;;;19.50;2.27;;;54.20;1.00;;;;;;4982877;28;20472;-70
2022/06/12 07:47:40;;;;;;;19.30;2.30;;;54.20;1.00;;;;;;4980675;28;20487;-71
2022/06/12 07:50:09;;;;;;;18.60;2.47;;;54.70;1.00;;;;;;4974707;28;20488;-70
2022/06/12 07:52:37;;;;;;;18.23;2.00;;;54.80;1.00;;;;;;4975140;28;20469;-70
2022/06/12 07:55:05;;;;;;;18.50;1.90;;;55.20;1.00;;;;;;4981346;28;20844;-70
2022/06/12 07:57:32;;;;;;;19.13;2.40;;;55.50;1.00;;;;;;4985565;28;21154;-70
2022/06/12 07:59:59;;;;;;;18.30;2.00;;;55.60;1.00;;;;;;4986060;28;20484;-70
2022/06/12 08:02:28;;;;;;;18.60;2.10;;;55.80;1.00;;;;;;4988566;28;20484;-70
2022/06/12 08:04:55;;;;;;;18.23;2.00;;;56.00;1.00;;;;;;4986061;28;20471;-72
2022/06/12 08:07:21;;;;;;;18.67;2.00;;;56.10;1.00;;;;;;4987725;28;20488;-71
2022/06/12 08:09:48;;;;;;;18.17;2.10;;;56.20;1.00;;;;;;4990462;28;20484;-71
2022/06/12 08:12:15;;;;;;;17.90;1.90;;;56.20;1.00;;;;;;4990708;28;20784;-71
2022/06/12 08:14:42;;;;;;;19.07;2.33;;;56.50;1.00;;;;;;4992755;28;20471;-71
2022/06/12 08:17:09;;;;;;;17.87;1.90;;;56.50;1.00;;;;;;4993620;28;20486;-70
2022/06/12 08:22:22;;;;;;;18.10;1.97;;;56.90;1.00;;;;;;4993107;28;20431;-71
2022/06/12 08:24:48;;;;;;;18.40;1.80;;;57.10;1.00;;;;;;4992190;28;20467;-71
2022/06/12 08:27:16;;;;;;;19.40;2.13;;;57.20;1.00;;;;;;4992852;28;20997;-71
2022/06/12 08:29:43;;;;;;;17.90;2.20;;;57.30;1.00;;;;;;4991436;28;20491;-71
2022/06/12 08:32:16;;;;;;;17.57;1.97;;;57.40;1.00;;;;;;4991773;28;20233;-71
2022/06/12 08:34:48;;;;;;;18.90;1.90;;;57.70;1.00;;;;;;4992590;28;20584;-70
2022/06/12 08:37:22;;;;;;;17.30;1.70;;;57.80;1.00;;;;;;4992107;28;20279;-71
2022/06/12 08:39:49;;;;;;;17.15;1.70;;;58.00;1.00;;;;;;4990197;28;20201;-71
2022/06/12 08:42:20;;;;;;;17.48;2.00;;;58.20;1.00;;;;;;4990296;28;20220;-71
2022/06/12 08:44:53;;;;;;;17.30;1.70;;;58.50;1.00;;;;;;4990843;28;20201;-70
2022/06/12 08:47:30;;;;;;;16.98;1.73;;;58.60;1.00;;;;;;4990927;28;20541;-71
2022/06/12 08:50:05;;;;;;;16.67;1.65;;;58.70;1.00;;;;;;4990042;28;20201;-71
2022/06/12 08:52:37;;;;;;;17.92;1.95;;;59.00;1.00;;;;;;4991688;28;20247;-71
2022/06/12 08:55:13;;;;;;;17.05;1.90;;;59.10;1.00;;;;;;4990639;28;20205;-71
2022/06/12 08:57:48;;;;;;;16.60;1.50;;;59.10;1.00;;;;;;4991287;28;20552;-71
2022/06/12 09:00:18;;;;;;;17.13;1.70;;;59.20;1.00;;;;;;4989602;28;20581;-71
2022/06/12 09:02:46;;;;;;;18.45;1.83;;;59.60;1.00;;;;;;4990767;28;20588;-71
2022/06/12 09:05:17;;;;;;;17.30;1.95;;;59.70;1.00;;;;;;4990400;28;20210;-71
2022/06/12 09:07:51;;;;;;;17.10;1.90;;;59.80;1.00;;;;;;4990279;28;20221;-71
2022/06/12 09:10:28;;;;;;;17.50;2.22;;;59.70;1.00;;;;;;4988980;28;20217;-71
2022/06/12 09:13:02;;;;;;;17.45;1.75;;;59.50;1.00;;;;;;4990965;28;20250;-71
2022/06/12 09:15:38;;;;;;;16.95;1.50;;;59.40;1.00;;;;;;4991067;28;20674;-71
2022/06/12 09:18:14;;;;;;;17.23;2.00;;;58.70;1.00;;;;;;4990894;28;20542;-71
2022/06/12 09:20:50;;;;;;;17.87;2.07;;;57.60;1.00;;;;;;4989745;28;20267;-71
2022/06/12 09:23:28;;;;;;;19.80;2.10;;;55.20;1.00;;;;;;4990486;28;20205;-71
2022/06/12 09:26:01;;;;;;;18.87;2.00;;;52.90;1.00;;;;;;4991131;28;20719;-71
2022/06/12 09:28:38;;;;;;;20.37;2.33;;;50.60;1.00;;;;;;4990570;28;20515;-71
2022/06/12 09:31:11;;;;;;;19.60;2.70;;;48.30;1.00;;;;;;4988596;28;20476;-71
2022/06/12 09:33:47;;;;;;;21.40;2.40;;;46.00;1.00;;;;;;4990154;28;20445;-71
2022/06/12 09:36:30;;;;;;;20.60;2.60;;;44.40;1.00;;;;;;4990369;28;21181;-71
2022/06/12 09:39:06;;;;;;;23.63;3.40;;;42.90;1.00;;;;;;4990619;28;20448;-71
2022/06/12 09:41:47;;;;;;;22.80;3.30;;;41.50;1.00;;;;;;4988575;28;20726;-70
2022/06/12 09:44:19;;;;;;;22.60;2.80;;;40.10;1.00;;;;;;4990553;28;20448;-71
2022/06/12 09:47:04;;;;;;;24.20;3.40;;;39.20;1.00;;;;;;4989917;28;20860;-70
2022/06/12 09:49:34;;;;;;;22.33;3.40;;;38.50;1.00;;;;;;4989503;28;20473;-70
2022/06/12 09:52:33;;;;;;;23.17;2.87;;;37.60;1.00;;;;;;4990023;28;20459;-71
2022/06/12 09:55:03;;;;;;;27.00;3.77;;;37.00;1.00;;;;;;4989833;28;20461;-70
2022/06/12 09:57:41;;;;;;;27.37;3.20;;;36.40;1.00;;;;;;4989862;28;20997;-70
2022/06/12 10:00:12;;;;;;;23.00;2.67;;;36.00;1.00;;;;;;4989324;28;20956;-70
2022/06/12 10:02:47;;;;;;;22.47;3.10;;;35.70;1.00;;;;;;4989290;28;20948;-70
2022/06/12 10:05:20;;;;;;;23.07;3.23;;;35.40;1.00;;;;;;4990313;28;20470;-70
2022/06/12 10:07:55;;;;;;;24.07;3.57;;;35.20;1.00;;;;;;4989250;28;20477;-70
2022/06/12 10:10:29;;;;;;;23.20;3.87;;;34.90;1.00;;;;;;4987444;28;20494;-70
2022/06/12 10:13:03;;;;;;;23.17;3.93;;;34.70;1.00;;;;;;4988119;28;20461;-70
2022/06/12 10:15:34;;;;;;;22.97;3.50;;;34.50;1.00;;;;;;4989531;28;21132;-71
2022/06/12 10:18:06;;;;;;;23.00;3.33;;;34.40;1.00;;;;;;4988746;28;20846;-65
2022/06/12 10:20:39;;;;;;;24.03;3.83;;;34.30;1.00;;;;;;4987858;28;20511;-70
2022/06/12 10:23:08;;;;;;;26.00;3.00;;;34.10;1.00;;;;;;4969983;28;20446;-70
2022/06/12 10:25:37;;;;;;;23.40;3.73;;;33.90;1.00;;;;;;4969424;28;20828;-70
2022/06/12 10:28:18;;;;;;;23.60;3.00;;;33.80;1.00;;;;;;4969487;28;20504;-70
2022/06/12 10:30:47;;;;;;;23.90;3.07;;;33.60;1.00;;;;;;4968969;28;20868;-70
2022/06/12 10:33:26;;;;;;;23.00;3.03;;;33.60;1.00;;;;;;4987813;28;20952;-70
2022/06/12 10:35:56;;;;;;;24.87;3.50;;;33.40;1.00;;;;;;4988728;28;20447;-70
2022/06/12 10:38:26;;;;;;;24.90;3.40;;;33.30;1.00;;;;;;4988685;28;20453;-70
2022/06/12 10:40:56;;;;;;;25.40;3.83;;;33.10;1.00;;;;;;4988490;28;20471;-70
2022/06/12 10:43:33;;;;;;;24.30;3.30;;;33.00;1.00;;;;;;4985079;28;20489;-70
2022/06/12 10:46:05;;;;;;;23.87;3.27;;;32.70;1.00;;;;;;4978138;28;20464;-70
2022/06/12 10:48:35;;;;;;;24.20;3.63;;;32.60;1.00;;;;;;4984196;28;21156;-70
2022/06/12 10:51:06;;;;;;;23.80;3.27;;;32.40;1.00;;;;;;4989082;28;20477;-70
2022/06/12 10:53:35;;;;;;;23.93;2.73;;;32.20;1.00;;;;;;4978601;28;20466;-71
2022/06/12 10:56:22;;;;;;;23.70;2.77;;;32.10;1.00;;;;;;4987671;28;20465;-70
2022/06/12 10:59:20;;;;;;;24.27;3.47;;;32.10;1.00;;;;;;4988496;28;20977;-70
2022/06/12 11:02:04;;;;;;;23.60;3.80;;;32.00;1.00;;;;;;4986843;28;20548;-71
2022/06/12 11:04:40;;;;;;;24.07;2.87;;;31.90;1.00;;;;;;4988265;28;20829;-70
2022/06/12 11:07:18;;;;;;;25.80;3.67;;;31.80;1.00;;;;;;4987762;28;21033;-70
2022/06/12 11:10:00;;;;;;;24.63;3.33;;;31.70;1.00;;;;;;4988585;28;20433;-71
2022/06/12 11:12:52;;;;;;;26.17;3.47;;;31.60;1.00;;;;;;4982596;28;20450;-70
2022/06/12 11:15:30;;;;;;;27.50;3.23;;;31.50;1.00;;;;;;4987917;28;20556;-70
2022/06/12 11:18:08;;;;;;;23.10;3.00;;;31.40;1.00;;;;;;4987913;28;20491;-70
2022/06/12 11:20:45;;;;;;;23.33;2.80;;;31.40;1.00;;;;;;4987123;28;20463;-70
2022/06/12 11:23:25;;;;;;;23.80;3.80;;;31.30;1.00;;;;;;4987379;28;20964;-70
2022/06/12 11:26:13;;;;;;;25.80;3.53;;;31.10;1.00;;;;;;4986210;28;20960;-71
2022/06/12 11:28:51;;;;;;;24.37;2.90;;;31.00;1.00;;;;;;4987123;28;20463;-71
2022/06/12 11:31:30;;;;;;;24.60;3.40;;;31.00;1.00;;;;;;4974176;28;20476;-70
2022/06/12 11:34:13;;;;;;;24.67;3.30;;;31.00;1.00;;;;;;4986191;28;20838;-70
2022/06/12 11:36:46;;;;;;;23.73;2.83;;;30.90;1.00;;;;;;4991148;28;20476;-70
2022/06/12 11:39:25;;;;;;;24.10;2.90;;;30.90;1.00;;;;;;4992085;28;20460;-71
2022/06/12 11:42:08;;;;;;;24.40;3.40;;;30.80;1.00;;;;;;4991087;28;20464;-70
2022/06/12 11:44:46;;;;;;;26.37;3.10;;;30.70;1.00;;;;;;4988015;28;21156;-71
2022/06/12 11:47:21;;;;;;;24.17;3.27;;;30.60;1.00;;;;;;4991215;28;20550;-70
2022/06/12 11:49:56;;;;;;;24.57;2.97;;;30.60;1.00;;;;;;4990440;28;20448;-70
2022/06/12 11:52:40;;;;;;;24.57;2.90;;;30.50;1.00;;;;;;4989875;28;20441;-71
2022/06/12 11:55:30;;;;;;;24.90;2.87;;;30.50;1.00;;;;;;4990355;28;20460;-71
2022/06/12 11:58:08;;;;;;;24.03;3.10;;;30.40;1.00;;;;;;4992199;28;20480;-70
2022/06/12 12:00:42;;;;;;;25.10;3.20;;;30.30;1.00;;;;;;4991047;28;20472;-70
2022/06/12 12:03:47;;;;;;;25.33;2.83;;;30.30;1.00;;;;;;4992189;28;21094;-70
2022/06/12 12:06:25;;;;;;;24.17;2.80;;;30.20;1.00;;;;;;4990296;28;20503;-70
2022/06/12 12:09:03;;;;;;;24.53;2.90;;;30.10;1.00;;;;;;4991807;28;20452;-71
2022/06/12 12:11:35;;;;;;;24.23;3.23;;;30.10;1.00;;;;;;4991423;28;20469;-70
2022/06/12 12:14:05;;;;;;;24.20;3.00;;;30.00;1.10;;;;;;4991557;28;20964;-70
2022/06/12 12:16:38;;;;;;;25.10;2.70;;;30.00;1.00;;;;;;4990451;28;20484;-70
2022/06/12 12:19:12;;;;;;;25.30;3.00;;;29.90;1.00;;;;;;4991795;28;20790;-70
2022/06/12 12:21:42;;;;;;;24.57;3.27;;;29.80;1.00;;;;;;4990974;28;20460;-70
2022/06/12 12:24:19;;;;;;;24.23;3.03;;;29.80;1.00;;;;;;4990891;28;20456;-70
2022/06/12 12:26:47;;;;;;;24.73;3.33;;;29.80;1.30;;;;;;4990795;28;20484;-70
2022/06/12 12:29:19;;;;;;;24.37;3.17;;;29.70;1.00;;;;;;4991154;28;20461;-70
2022/06/12 12:31:48;;;;;;;25.00;3.00;;;29.60;1.70;;;;;;4989620;28;20476;-71
2022/06/12 12:34:17;;;;;;;25.37;2.93;;;29.60;1.30;;;;;;4991343;28;20464;-70
2022/06/12 12:42:26;;;;;;;25.00;3.23;;;29.60;1.00;;;;;;4989814;28;20456;-70
2022/06/12 12:44:55;;;;;;;24.60;3.03;;;29.60;1.00;;;;;;4991534;28;20460;-70
2022/06/12 12:47:25;;;;;;;24.37;3.20;;;29.50;1.00;;;;;;4989553;28;20989;-70
2022/06/12 12:50:04;;;;;;;26.60;3.27;;;29.50;1.00;;;;;;4991365;28;20461;-71
2022/06/12 12:52:42;;;;;;;24.80;3.20;;;29.50;1.00;;;;;;4991104;28;20472;-70
2022/06/12 12:55:21;;;;;;;24.80;3.10;;;29.50;1.00;;;;;;4990762;28;20445;-70
2022/06/12 12:57:48;;;;;;;25.10;2.93;;;29.40;1.00;;;;;;4989882;28;20574;-70
2022/06/12 13:00:28;;;;;;;24.37;2.70;;;29.40;1.00;;;;;;4990204;28;20453;-71
2022/06/12 13:02:57;;;;;;;24.10;2.83;;;29.40;1.00;;;;;;4991594;28;20539;-71
2022/06/12 13:05:27;;;;;;;25.20;3.00;;;29.40;1.00;;;;;;4990627;28;20468;-70
2022/06/12 13:08:06;;;;;;;24.97;2.70;;;29.40;1.00;;;;;;4989597;28;20500;-70
2022/06/12 13:10:47;;;;;;;24.17;2.90;;;29.40;1.40;;;;;;4990210;28;20477;-71
2022/06/12 13:13:45;;;;;;;24.63;3.13;;;29.40;1.00;;;;;;4990434;28;20460;-70
2022/06/12 13:16:20;;;;;;;24.80;2.93;;;29.40;1.00;;;;;;4990516;28;20456;-70
2022/06/12 13:19:09;;;;;;;24.70;3.23;;;29.40;1.00;;;;;;4989327;28;21013;-70
2022/06/12 13:21:48;;;;;;;25.10;2.80;;;29.40;1.00;;;;;;4990545;28;20461;-70
2022/06/12 13:24:33;;;;;;;26.77;3.40;;;29.50;1.00;;;;;;4989389;28;21090;-70
2022/06/12 13:27:11;;;;;;;25.00;3.00;;;29.40;1.00;;;;;;4988248;28;20515;-71
2022/06/12 13:29:45;;;;;;;24.37;3.30;;;29.50;1.00;;;;;;4983248;28;20457;-70
2022/06/12 13:32:23;;;;;;;24.50;2.90;;;29.40;1.00;;;;;;4988277;28;20480;-70
2022/06/12 13:35:01;;;;;;;25.40;3.20;;;29.40;1.00;;;;;;4989994;28;20453;-71
2022/06/12 13:37:32;;;;;;;24.40;3.07;;;29.50;1.00;;;;;;4989688;28;20481;-71